Metar Aviation Weather Data YSDU Dubbo City Regional

21°C Temp
20°C Dewpoint
94% Humidity
Temperature
13 KM/H
8 MPH
7 KTS
60°
East North
East

Wind Speed
Mostly Cloudy
Conditions
Pressure 1017.92 (hPa) - 30.06 (in)
Visibility 6.2 (mi) - 10 (km)

Current Conditions
YSDU
Dubbo City Regional
Metar :YSDU 201930Z AUTO 06007KT 9999 // BKN094 OVC120 21/20 Q1018
Mon 21st January 05:30 am

Dubbo City Regional
  Metar Aviation API Data Provided by https://www.checkwx.com/ PHP scripts by weather34.com ©2019